createdAt,value
2023-11-11T00:00:29.728Z,11.08
2023-11-11T00:03:18.726Z,9.99
2023-11-11T00:05:46.695Z,9.10
2023-11-11T00:08:14.656Z,8.46
2023-11-11T00:10:42.506Z,8.84
2023-11-11T00:13:10.492Z,10.56
2023-11-11T00:15:38.548Z,11.28
2023-11-11T00:18:08.761Z,10.25
2023-11-11T00:20:36.604Z,9.28
2023-11-11T00:23:06.516Z,8.60
2023-11-11T00:25:34.428Z,8.93
2023-11-11T00:28:02.302Z,10.69
2023-11-11T00:30:31.927Z,11.41
2023-11-11T00:32:59.878Z,10.34
2023-11-11T00:35:27.718Z,9.36
2023-11-11T00:37:55.505Z,8.69
2023-11-11T00:40:23.465Z,8.66
2023-11-11T00:42:52.698Z,10.22
2023-11-11T00:45:20.846Z,10.98
2023-11-11T00:47:48.757Z,10.02
2023-11-11T00:50:17.659Z,9.10
2023-11-11T00:52:45.632Z,8.44
2023-11-11T00:55:13.431Z,8.43
2023-11-11T00:57:44.302Z,10.01
2023-11-11T01:00:14.028Z,10.85
2023-11-11T01:02:42.265Z,9.88
2023-11-11T01:05:12.784Z,8.96
2023-11-11T01:07:41.003Z,8.28
2023-11-11T01:10:09.922Z,8.36
2023-11-11T01:12:39.323Z,9.99
2023-11-11T01:15:13.092Z,10.77
2023-11-11T01:17:42.032Z,9.78
2023-11-11T01:20:10.739Z,8.87
2023-11-11T01:22:38.562Z,8.21
2023-11-11T01:25:08.846Z,8.16
2023-11-11T01:27:37.469Z,9.73
2023-11-11T01:30:06.604Z,10.58
2023-11-11T01:32:35.160Z,9.66
2023-11-11T01:35:02.969Z,8.73
2023-11-11T01:37:30.850Z,8.09
2023-11-11T01:39:58.931Z,8.68
2023-11-11T01:42:26.876Z,10.29
2023-11-11T01:44:56.198Z,10.96
2023-11-11T01:47:24.339Z,9.94
2023-11-11T01:49:52.376Z,8.99
2023-11-11T01:52:20.940Z,8.28
2023-11-11T01:54:49.221Z,8.25
2023-11-11T01:57:17.145Z,9.78
2023-11-11T01:59:45.346Z,10.53
2023-11-11T02:02:13.199Z,9.56
2023-11-11T02:04:41.084Z,8.66
2023-11-11T02:07:09.424Z,7.98
2023-11-11T02:09:38.055Z,7.50
2023-11-11T02:12:06.448Z,8.28
2023-11-11T02:14:36.905Z,9.95
2023-11-11T02:17:04.750Z,10.13
2023-11-11T02:19:32.746Z,9.05
2023-11-11T02:22:00.631Z,8.17
2023-11-11T02:24:29.275Z,7.54
2023-11-11T02:26:57.391Z,7.54
2023-11-11T02:29:25.204Z,9.13
2023-11-11T02:31:52.980Z,10.07
2023-11-11T02:34:21.015Z,9.16
2023-11-11T02:36:58.164Z,8.19
2023-11-11T02:39:30.957Z,7.49
2023-11-11T02:41:58.724Z,7.64
2023-11-11T02:44:26.481Z,9.28
2023-11-11T02:46:54.307Z,10.21
2023-11-11T02:49:22.100Z,9.32
2023-11-11T02:51:49.880Z,8.34
2023-11-11T02:54:17.650Z,7.64
2023-11-11T02:56:45.426Z,8.11
2023-11-11T02:59:13.216Z,9.75
2023-11-11T03:01:42.263Z,10.36
2023-11-11T03:04:13.277Z,9.32
2023-11-11T03:06:44.707Z,8.34
2023-11-11T03:09:13.179Z,7.66
2023-11-11T03:11:41.141Z,7.86
2023-11-11T03:14:09.101Z,9.48
2023-11-11T03:16:40.995Z,10.22
2023-11-11T03:19:09.028Z,9.23
2023-11-11T03:21:37.001Z,8.27
2023-11-11T03:24:05.963Z,7.80
2023-11-11T03:26:34.623Z,9.05
2023-11-11T03:29:02.719Z,9.84
2023-11-11T03:31:30.652Z,8.85
2023-11-11T03:33:58.649Z,7.91
2023-11-11T03:36:26.556Z,7.89
2023-11-11T03:38:54.390Z,9.41
2023-11-11T03:41:22.153Z,10.13
2023-11-11T03:43:49.899Z,9.16
2023-11-11T03:46:18.374Z,8.19
2023-11-11T03:48:46.326Z,7.48
2023-11-11T03:51:14.179Z,6.95
2023-11-11T03:53:41.932Z,7.08
2023-11-11T03:56:09.721Z,8.65
2023-11-11T03:58:39.852Z,9.47
2023-11-11T04:01:10.523Z,8.50
2023-11-11T04:03:40.802Z,7.57
2023-11-11T04:06:10.955Z,6.92
2023-11-11T04:08:41.128Z,6.97
2023-11-11T04:11:09.689Z,8.57
2023-11-11T04:13:41.792Z,9.38
2023-11-11T04:16:15.050Z,8.40
2023-11-11T04:18:43.272Z,7.44
2023-11-11T04:21:13.178Z,6.77
2023-11-11T04:23:43.826Z,6.84
2023-11-11T04:26:11.673Z,8.35
2023-11-11T04:28:44.061Z,9.19
2023-11-11T04:31:18.343Z,8.25
2023-11-11T04:33:46.272Z,7.26
2023-11-11T04:36:14.259Z,6.72
2023-11-11T04:38:43.489Z,7.65
2023-11-11T04:41:14.225Z,9.07
2023-11-11T04:43:41.959Z,8.79
2023-11-11T04:46:09.751Z,7.73
2023-11-11T04:48:37.799Z,6.96
2023-11-11T04:51:06.655Z,7.03
2023-11-11T04:53:35.845Z,8.63
2023-11-11T04:56:04.328Z,9.44
2023-11-11T04:58:32.424Z,8.43
2023-11-11T05:01:00.269Z,7.46
2023-11-11T05:03:28.102Z,6.75
2023-11-11T05:05:55.993Z,6.90
2023-11-11T05:08:23.809Z,8.47
2023-11-11T05:10:51.645Z,9.16
2023-11-11T05:13:22.198Z,8.13
2023-11-11T05:16:00.515Z,7.18
2023-11-11T05:18:28.896Z,6.48
2023-11-11T05:20:56.933Z,6.52
2023-11-11T05:23:25.025Z,8.11
2023-11-11T05:25:52.919Z,8.92
2023-11-11T05:28:21.486Z,7.97
2023-11-11T05:30:49.486Z,7.02
2023-11-11T05:33:17.511Z,6.34
2023-11-11T05:35:45.672Z,5.85
2023-11-11T05:38:13.462Z,6.53
2023-11-11T05:40:41.326Z,8.20
2023-11-11T05:43:09.963Z,8.99
2023-11-11T05:45:37.811Z,7.94
2023-11-11T05:48:06.032Z,6.93
2023-11-11T05:50:33.985Z,6.21
2023-11-11T05:53:01.843Z,5.73
2023-11-11T05:55:30.221Z,6.51
2023-11-11T05:57:58.053Z,8.14
2023-11-11T06:00:25.871Z,8.94
2023-11-11T06:02:53.809Z,7.90
2023-11-11T06:05:22.808Z,6.90
2023-11-11T06:07:50.625Z,6.20
2023-11-11T06:10:19.487Z,6.20
2023-11-11T06:12:49.018Z,7.74
2023-11-11T06:15:18.728Z,9.23
2023-11-11T06:17:46.787Z,9.04
2023-11-11T06:20:15.233Z,7.84
2023-11-11T06:22:43.928Z,6.96
2023-11-11T06:25:12.061Z,6.42
2023-11-11T06:27:41.350Z,7.34
2023-11-11T06:30:11.238Z,8.93
2023-11-11T06:32:40.209Z,9.55
2023-11-11T06:35:09.950Z,8.51
2023-11-11T06:37:37.947Z,7.54
2023-11-11T06:40:08.438Z,6.96
2023-11-11T06:42:40.227Z,7.91
2023-11-11T06:45:08.781Z,9.47
2023-11-11T06:47:36.614Z,9.61
2023-11-11T06:50:04.993Z,8.50
2023-11-11T06:52:32.717Z,7.62
2023-11-11T06:55:00.811Z,7.02
2023-11-11T06:57:28.904Z,7.28
2023-11-11T06:59:57.117Z,8.91
2023-11-11T07:02:25.201Z,9.95
2023-11-11T07:04:55.959Z,9.11
2023-11-11T07:07:23.904Z,8.11
2023-11-11T07:09:54.142Z,7.79
2023-11-11T07:12:23.932Z,9.18
2023-11-11T07:14:51.977Z,10.14
2023-11-11T07:17:20.247Z,9.25
2023-11-11T07:19:48.323Z,8.32
2023-11-11T07:24:48.537Z,9.67
2023-11-11T07:27:17.989Z,10.53
2023-11-11T07:29:46.206Z,9.70
2023-11-11T07:32:14.702Z,8.82
2023-11-11T07:34:45.900Z,9.31
2023-11-11T07:37:14.667Z,10.86
2023-11-11T07:39:44.455Z,11.49
2023-11-11T07:42:12.564Z,10.49
2023-11-11T07:44:41.129Z,9.58
2023-11-11T07:47:11.809Z,9.50
2023-11-11T07:49:40.501Z,11.00
2023-11-11T07:52:08.504Z,11.81
2023-11-11T07:54:36.984Z,10.88
2023-11-11T07:57:07.162Z,10.00
2023-11-11T07:59:40.077Z,9.39
2023-11-11T08:02:08.064Z,9.64
2023-11-11T08:04:36.145Z,11.31
2023-11-11T08:07:04.243Z,12.14
2023-11-11T08:09:35.547Z,11.24
2023-11-11T08:12:04.715Z,10.38
2023-11-11T08:14:32.797Z,9.79
2023-11-11T08:17:00.948Z,9.98
2023-11-11T08:19:28.974Z,11.62
2023-11-11T08:21:57.242Z,12.27
2023-11-11T08:24:25.164Z,11.35
2023-11-11T08:26:53.107Z,10.53
2023-11-11T08:29:23.019Z,9.98
2023-11-11T08:31:50.873Z,10.18
2023-11-11T08:34:18.769Z,11.94
2023-11-11T08:36:51.022Z,12.72
2023-11-11T08:39:22.067Z,11.78
2023-11-11T08:41:50.774Z,10.92
2023-11-11T08:44:19.273Z,10.33
2023-11-11T08:46:47.282Z,10.44
2023-11-11T08:49:15.255Z,12.05
2023-11-11T08:51:43.254Z,12.82
2023-11-11T08:54:11.237Z,11.94
2023-11-11T08:56:39.074Z,11.18
2023-11-11T08:59:07.735Z,10.80
2023-11-11T09:01:35.890Z,11.24
2023-11-11T09:04:05.075Z,13.22
2023-11-11T09:06:33.134Z,14.42
2023-11-11T09:09:01.140Z,14.00
2023-11-11T09:11:29.056Z,13.61
2023-11-11T09:13:56.863Z,13.48
2023-11-11T09:16:24.736Z,13.46
2023-11-11T09:18:52.898Z,13.56
2023-11-11T09:21:20.993Z,13.77
2023-11-11T09:23:48.770Z,14.00
2023-11-11T09:26:17.419Z,14.25
2023-11-11T09:28:45.314Z,14.50
2023-11-11T09:31:14.308Z,14.70
2023-11-11T09:33:42.964Z,14.85
2023-11-11T09:36:10.806Z,14.96
2023-11-11T09:38:39.215Z,15.09
2023-11-11T09:41:21.843Z,15.33
2023-11-11T09:44:04.988Z,15.58
2023-11-11T09:46:45.648Z,15.82
2023-11-11T09:49:13.835Z,16.13
2023-11-11T09:51:42.024Z,16.44
2023-11-11T09:54:10.692Z,16.74
2023-11-11T09:59:11.706Z,17.33
2023-11-11T10:01:42.111Z,17.61
2023-11-11T10:04:12.933Z,17.85
2023-11-11T10:06:41.236Z,18.08
2023-11-11T10:09:13.632Z,18.33
2023-11-11T10:11:41.463Z,18.63
2023-11-11T10:14:11.168Z,18.91
2023-11-11T10:16:43.886Z,19.13
2023-11-11T10:19:16.738Z,19.36
2023-11-11T10:21:45.164Z,19.61
2023-11-11T10:24:13.216Z,19.83
2023-11-11T10:26:42.737Z,20.05
2023-11-11T10:29:11.011Z,20.24
2023-11-11T10:31:38.993Z,20.42
2023-11-11T10:34:07.174Z,20.57
2023-11-11T10:36:42.776Z,20.72
2023-11-11T10:39:11.714Z,20.86
2023-11-11T10:41:40.702Z,20.99
2023-11-11T10:44:09.627Z,21.23
2023-11-11T10:46:41.074Z,21.61
2023-11-11T10:49:12.116Z,22.07
2023-11-11T10:51:42.281Z,22.47
2023-11-11T10:54:13.429Z,22.84
2023-11-11T10:56:42.042Z,23.17
2023-11-11T10:59:11.904Z,23.48
2023-11-11T11:01:42.586Z,23.74
2023-11-11T11:04:12.668Z,24.00
2023-11-11T11:07:11.095Z,24.16
2023-11-11T11:09:52.066Z,24.17
2023-11-11T11:12:39.754Z,24.24
2023-11-11T11:15:14.512Z,24.44
2023-11-11T11:17:48.936Z,24.61
2023-11-11T11:20:19.220Z,24.64
2023-11-11T11:22:50.575Z,24.49
2023-11-11T11:25:39.183Z,24.28
2023-11-11T11:28:13.898Z,24.06
2023-11-11T11:30:46.095Z,23.86
2023-11-11T11:33:16.166Z,23.73
2023-11-11T11:35:49.338Z,23.66
2023-11-11T11:38:37.265Z,23.61
2023-11-11T11:41:13.877Z,23.56
2023-11-11T11:43:43.336Z,23.51
2023-11-11T11:46:11.885Z,23.44
2023-11-11T11:48:41.755Z,23.34
2023-11-11T11:51:19.801Z,23.19
2023-11-11T11:53:49.672Z,22.99
2023-11-11T11:56:29.997Z,22.77
2023-11-11T11:59:00.321Z,22.55
2023-11-11T12:01:33.984Z,22.34
2023-11-11T12:04:02.443Z,22.15
2023-11-11T12:06:30.511Z,21.94
2023-11-11T12:09:02.140Z,21.73
2023-11-11T12:11:35.077Z,21.54
2023-11-11T12:14:10.014Z,21.36
2023-11-11T12:16:48.551Z,21.18
2023-11-11T12:19:26.229Z,20.98
2023-11-11T12:21:55.162Z,20.78
2023-11-11T12:24:27.847Z,20.60
2023-11-11T12:29:25.330Z,20.28
2023-11-11T12:31:55.206Z,20.11
2023-11-11T12:34:32.797Z,19.93
2023-11-11T12:37:00.978Z,19.75
2023-11-11T12:39:30.743Z,19.60
2023-11-11T12:41:59.278Z,19.43
2023-11-11T12:44:27.672Z,19.27
2023-11-11T12:47:00.677Z,19.11
2023-11-11T12:49:29.547Z,18.95
2023-11-11T12:52:18.257Z,18.79
2023-11-11T12:54:46.055Z,18.60
2023-11-11T12:57:25.604Z,18.45
2023-11-11T12:59:55.207Z,18.28
2023-11-11T13:02:23.719Z,18.14
2023-11-11T13:04:51.881Z,17.99
2023-11-11T13:07:21.929Z,17.85
2023-11-11T13:09:49.983Z,17.73
2023-11-11T13:12:18.582Z,17.58
2023-11-11T13:14:46.683Z,17.40
2023-11-11T13:17:14.786Z,17.20
2023-11-11T13:19:44.068Z,17.00
2023-11-11T13:22:13.547Z,16.77
2023-11-11T13:24:41.547Z,16.52
2023-11-11T13:27:12.830Z,16.26
2023-11-11T13:29:40.622Z,16.01
2023-11-11T13:32:08.809Z,15.77
2023-11-11T13:34:37.321Z,15.55
2023-11-11T13:37:15.978Z,15.32
2023-11-11T13:39:53.034Z,15.08
2023-11-11T13:42:22.712Z,14.87
2023-11-11T13:44:51.443Z,14.67
2023-11-11T13:47:21.304Z,14.48
2023-11-11T13:49:49.500Z,14.28
2023-11-11T13:52:17.651Z,14.08
2023-11-11T13:54:46.080Z,13.90
2023-11-11T13:57:16.756Z,13.72
2023-11-11T13:59:44.628Z,13.55
2023-11-11T14:02:13.686Z,13.39
2023-11-11T14:04:47.123Z,13.23
2023-11-11T14:07:15.345Z,13.09
2023-11-11T14:09:43.161Z,12.95
2023-11-11T14:12:13.606Z,12.82
2023-11-11T14:14:42.731Z,12.71
2023-11-11T14:17:10.678Z,12.61
2023-11-11T14:19:38.580Z,12.50
2023-11-11T14:22:06.544Z,12.40
2023-11-11T14:24:34.707Z,12.29
2023-11-11T14:27:03.626Z,12.20
2023-11-11T14:29:31.613Z,12.10
2023-11-11T14:31:59.710Z,12.00
2023-11-11T14:34:27.671Z,11.90
2023-11-11T14:36:57.273Z,11.80
2023-11-11T14:39:26.423Z,11.70
2023-11-11T14:41:55.276Z,11.60
2023-11-11T14:44:23.192Z,11.51
2023-11-11T14:46:51.127Z,11.41
2023-11-11T14:49:18.962Z,11.31
2023-11-11T14:51:49.800Z,11.22
2023-11-11T14:54:17.659Z,11.12
2023-11-11T14:56:45.521Z,11.02
2023-11-11T14:59:13.325Z,10.92
2023-11-11T15:01:41.368Z,10.82
2023-11-11T15:04:10.332Z,10.72
2023-11-11T15:06:39.076Z,10.62
2023-11-11T15:09:07.040Z,10.53
2023-11-11T15:11:34.896Z,10.43
2023-11-11T15:14:04.860Z,10.34
2023-11-11T15:16:33.619Z,10.69
2023-11-11T15:19:02.901Z,12.59
2023-11-11T15:21:31.250Z,13.59
2023-11-11T15:23:59.334Z,12.86
2023-11-11T15:26:27.615Z,12.16
2023-11-11T15:28:55.531Z,11.69
2023-11-11T15:31:29.978Z,11.37
2023-11-11T15:33:58.967Z,11.12
2023-11-11T15:36:27.267Z,10.93
2023-11-11T15:38:57.361Z,10.75
2023-11-11T15:41:25.550Z,11.08
2023-11-11T15:43:53.688Z,12.77
2023-11-11T15:46:22.018Z,13.66
2023-11-11T15:48:49.964Z,12.94
2023-11-11T15:51:23.124Z,12.23
2023-11-11T15:53:53.407Z,11.73
2023-11-11T15:56:21.550Z,11.39
2023-11-11T15:58:50.045Z,11.14
2023-11-11T16:01:20.001Z,10.92
2023-11-11T16:03:50.970Z,10.73
2023-11-11T16:06:19.145Z,11.14
2023-11-11T16:08:47.167Z,12.77
2023-11-11T16:11:18.734Z,13.73
2023-11-11T16:13:47.936Z,12.98
2023-11-11T16:16:18.228Z,12.22
2023-11-11T16:18:47.427Z,11.71
2023-11-11T16:21:23.701Z,11.35
2023-11-11T16:23:53.395Z,11.51
2023-11-11T16:26:21.950Z,13.06
2023-11-11T16:28:49.849Z,13.90
2023-11-11T16:31:28.059Z,13.13
2023-11-11T16:34:00.239Z,12.34
2023-11-11T16:36:30.506Z,11.82
2023-11-11T16:39:03.897Z,11.45
2023-11-11T16:41:31.760Z,11.14
2023-11-11T16:44:01.674Z,11.39
2023-11-11T16:46:29.803Z,12.95
2023-11-11T16:48:57.632Z,13.77
2023-11-11T16:51:25.568Z,13.01
2023-11-11T16:53:56.210Z,12.27
2023-11-11T16:56:24.423Z,11.75
2023-11-11T16:58:53.895Z,11.38
2023-11-11T17:01:21.851Z,11.53
2023-11-11T17:03:51.457Z,13.04
2023-11-11T17:06:21.493Z,13.86
2023-11-11T17:08:50.954Z,13.07
2023-11-11T17:11:21.194Z,12.29
2023-11-11T17:13:49.129Z,11.75
2023-11-11T17:16:18.521Z,11.35
2023-11-11T17:18:46.342Z,11.43
2023-11-11T17:21:14.644Z,12.88
2023-11-11T17:23:44.926Z,13.72
2023-11-11T17:26:13.908Z,12.96
2023-11-11T17:28:43.238Z,12.21
2023-11-11T17:31:11.223Z,11.68
2023-11-11T17:33:45.808Z,11.30
2023-11-11T17:36:20.306Z,11.51
2023-11-11T17:38:48.286Z,13.03
2023-11-11T17:41:16.401Z,13.76
2023-11-11T17:43:44.369Z,12.96
2023-11-11T17:46:22.975Z,12.20
2023-11-11T17:48:51.489Z,11.64
2023-11-11T17:51:20.481Z,11.26
2023-11-11T17:53:48.699Z,11.49
2023-11-11T17:56:28.336Z,13.03
2023-11-11T17:58:56.336Z,13.86
2023-11-11T18:01:24.356Z,13.02
2023-11-11T18:03:52.435Z,12.24
2023-11-11T18:06:23.041Z,11.69
2023-11-11T18:08:50.999Z,11.29
2023-11-11T18:11:22.126Z,11.45
2023-11-11T18:13:49.976Z,12.99
2023-11-11T18:16:18.751Z,13.82
2023-11-11T18:18:47.037Z,13.01
2023-11-11T18:21:15.985Z,12.19
2023-11-11T18:23:45.063Z,11.62
2023-11-11T18:26:13.663Z,11.20
2023-11-11T18:28:41.821Z,11.61
2023-11-11T18:31:09.839Z,13.16
2023-11-11T18:33:38.086Z,13.91
2023-11-11T18:36:08.982Z,13.05
2023-11-11T18:38:38.282Z,12.20
2023-11-11T18:41:08.049Z,11.61
2023-11-11T18:43:36.844Z,11.19
2023-11-11T18:46:04.967Z,11.76
2023-11-11T18:48:33.208Z,13.30
2023-11-11T18:51:01.212Z,13.80
2023-11-11T18:53:30.064Z,12.87
2023-11-11T18:55:59.120Z,12.07
2023-11-11T18:58:27.104Z,11.51
2023-11-11T19:00:56.410Z,11.51
2023-11-11T19:03:24.769Z,12.91
2023-11-11T19:05:54.582Z,13.70
2023-11-11T19:08:22.864Z,12.89
2023-11-11T19:10:50.783Z,12.06
2023-11-11T19:13:18.792Z,11.47
2023-11-11T19:15:46.711Z,11.52
2023-11-11T19:18:14.678Z,12.86
2023-11-11T19:20:42.622Z,13.66
2023-11-11T19:23:11.835Z,12.88
2023-11-11T19:25:39.833Z,12.05
2023-11-11T19:28:07.762Z,11.46
2023-11-11T19:30:35.699Z,11.46
2023-11-11T19:33:05.309Z,12.83
2023-11-11T19:35:33.215Z,13.64
2023-11-11T19:38:01.280Z,12.85
2023-11-11T19:40:29.245Z,12.04
2023-11-11T19:42:57.145Z,11.47
2023-11-11T19:45:25.999Z,11.46
2023-11-11T19:47:53.924Z,12.84
2023-11-11T19:50:21.858Z,13.67
2023-11-11T19:52:49.887Z,12.88
2023-11-11T19:55:17.911Z,12.05
2023-11-11T19:57:46.735Z,11.48
2023-11-11T20:00:15.159Z,11.50
2023-11-11T20:02:43.410Z,12.96
2023-11-11T20:05:11.561Z,13.74
2023-11-11T20:07:40.622Z,12.91
2023-11-11T20:10:10.012Z,12.07
2023-11-11T20:12:37.934Z,11.48
2023-11-11T20:15:12.402Z,11.44
2023-11-11T20:17:41.233Z,12.92
2023-11-11T20:20:10.092Z,13.67
2023-11-11T20:22:38.065Z,12.84
2023-11-11T20:25:06.933Z,12.01
2023-11-11T20:27:38.130Z,11.42
2023-11-11T20:30:10.738Z,11.38
2023-11-11T20:32:38.737Z,12.78
2023-11-11T20:35:12.613Z,13.55
2023-11-11T20:37:41.424Z,12.71
2023-11-11T20:40:15.780Z,11.88
2023-11-11T20:42:45.216Z,11.28
2023-11-11T20:45:13.749Z,11.35
2023-11-11T20:47:41.687Z,12.83
2023-11-11T20:50:11.914Z,13.58
2023-11-11T20:52:39.998Z,12.72
2023-11-11T20:55:08.864Z,11.89
2023-11-11T20:57:37.876Z,11.30
2023-11-11T21:00:07.177Z,11.42
2023-11-11T21:02:36.443Z,12.86
2023-11-11T21:05:05.604Z,13.61
2023-11-11T21:07:35.167Z,12.77
2023-11-11T21:10:03.420Z,11.94
2023-11-11T21:12:31.271Z,11.35
2023-11-11T21:14:59.794Z,11.40
2023-11-11T21:17:30.637Z,12.84
2023-11-11T21:19:58.659Z,13.68
2023-11-11T21:22:26.699Z,12.85
2023-11-11T21:24:54.586Z,11.99
2023-11-11T21:27:22.446Z,11.40
2023-11-11T21:29:50.287Z,11.43
2023-11-11T21:32:18.093Z,12.81
2023-11-11T21:34:46.019Z,13.59
2023-11-11T21:37:14.048Z,12.78
2023-11-11T21:39:44.670Z,11.94
2023-11-11T21:42:13.628Z,11.37
2023-11-11T21:44:41.451Z,11.80
2023-11-11T21:47:09.575Z,13.25
2023-11-11T21:49:37.623Z,13.86
2023-11-11T21:52:07.389Z,12.96
2023-11-11T21:54:35.169Z,12.09
2023-11-11T21:57:03.024Z,11.51
2023-11-11T21:59:34.561Z,12.01
2023-11-11T22:02:02.850Z,13.50
2023-11-11T22:04:30.626Z,14.12
2023-11-11T22:06:58.560Z,13.16
2023-11-11T22:09:27.277Z,12.27
2023-11-11T22:11:57.384Z,11.65
2023-11-11T22:14:26.870Z,11.85
2023-11-11T22:16:54.855Z,13.36
2023-11-11T22:19:22.839Z,14.06
2023-11-11T22:21:50.591Z,13.16
2023-11-11T22:24:18.528Z,12.30
2023-11-11T22:26:51.116Z,11.84
2023-11-11T22:29:19.569Z,12.91
2023-11-11T22:31:47.543Z,14.12
2023-11-11T22:34:15.506Z,13.64
2023-11-11T22:36:43.606Z,12.67
2023-11-11T22:39:13.037Z,11.97
2023-11-11T22:41:42.759Z,12.05
2023-11-11T22:44:11.361Z,13.47
2023-11-11T22:46:39.967Z,14.12
2023-11-11T22:49:08.956Z,13.20
2023-11-11T22:51:37.385Z,12.32
2023-11-11T22:54:05.780Z,11.74
2023-11-11T22:56:33.660Z,12.40
2023-11-11T22:59:01.525Z,13.70
2023-11-11T23:01:32.277Z,13.34
2023-11-11T23:04:00.299Z,12.42
2023-11-11T23:06:28.242Z,11.74
2023-11-11T23:08:59.190Z,11.78
2023-11-11T23:11:29.722Z,13.30
2023-11-11T23:13:57.502Z,14.06
2023-11-11T23:16:26.058Z,13.12
2023-11-11T23:18:54.057Z,12.23
2023-11-11T23:21:21.980Z,12.03
2023-11-11T23:23:49.731Z,13.39
2023-11-11T23:26:17.646Z,14.15
2023-11-11T23:28:45.813Z,13.23
2023-11-11T23:31:13.687Z,12.31
2023-11-11T23:33:41.504Z,11.83
2023-11-11T23:36:09.471Z,12.89
2023-11-11T23:38:37.520Z,13.95
2023-11-11T23:41:05.553Z,13.21
2023-11-11T23:43:33.532Z,12.31
2023-11-11T23:46:01.305Z,11.66
2023-11-11T23:48:29.159Z,11.99
2023-11-11T23:50:57.020Z,13.56
2023-11-11T23:53:24.777Z,14.19
2023-11-11T23:55:52.677Z,13.19
2023-11-11T23:58:21.727Z,12.27
